Time;durP1;ratioP1;P1;durP2;ratioP2;P2;SDS_P1;SDS_P2;PMS_P1;PMS_P2;Temp;Humidity;BMP_temperature;BMP_pressure;BME280_temperature;BME280_humidity;BME280_pressure;Samples;Min_cycle;Max_cycle;Signal;HPM_P1;HPM_P2
2023/04/21 00:00:13;;;;;;;;;;;;;;;8.15;81.01;101497.66;5065087;28;19939;-62
2023/04/21 00:02:38;;;;;;;;;;;;;;;8.13;81.58;101491.66;5065745;28;19916;-62
2023/04/21 00:05:09;;;;;;;;;;;;;;;8.11;81.25;101480.38;5065864;28;19932;-62
2023/04/21 00:07:36;;;;;;;;;;;;;;;8.08;81.94;101486.75;5059247;28;19924;-62
2023/04/21 00:10:01;;;;;;;;;;;;;;;8.05;82.27;101487.03;5064791;28;20424;-62
2023/04/21 00:12:26;;;;;;;;;;;;;;;8.06;82.53;101472.00;5062482;28;19932;-61
2023/04/21 00:14:52;;;;;;;;;;;;;;;8.03;83.14;101465.19;5057038;28;19955;-62
2023/04/21 00:17:17;;;;;;;;;;;;;;;8.02;83.63;101455.56;5061935;28;19916;-62
2023/04/21 00:19:43;;;;;;;;;;;;;;;8.02;83.41;101454.75;5052221;28;19943;-62
2023/04/21 00:22:13;;;;;;;;;;;;;;;7.99;84.12;101455.84;5053710;28;19917;-62
2023/04/21 00:24:38;;;;;;;;;;;;;;;7.97;84.25;101451.69;5064642;28;19927;-62
2023/04/21 00:27:04;;;;;;;;;;;;;;;7.96;84.56;101458.78;5059258;28;19920;-62
2023/04/21 00:29:29;;;;;;;;;;;;;;;7.95;84.79;101448.34;5056660;28;19959;-62
2023/04/21 00:31:54;;;;;;;;;;;;;;;7.94;84.82;101444.03;5057925;28;19962;-62
2023/04/21 00:34:19;;;;;;;;;;;;;;;7.91;84.69;101436.38;5068538;28;20294;-62
2023/04/21 00:36:45;;;;;;;;;;;;;;;7.88;84.39;101436.66;5056233;28;19948;-62
2023/04/21 00:39:10;;;;;;;;;;;;;;;7.86;84.33;101438.59;5057968;28;19963;-62
2023/04/21 00:41:35;;;;;;;;;;;;;;;7.81;84.87;101431.09;5065615;28;19924;-61
2023/04/21 00:44:04;;;;;;;;;;;;;;;7.80;85.07;101433.84;5064484;28;19962;-62
2023/04/21 00:46:29;;;;;;;;;;;;;;;7.79;85.00;101427.72;5062939;28;19947;-62
2023/04/21 00:48:55;;;;;;;;;;;;;;;7.80;84.76;101434.69;5061915;28;20378;-62
2023/04/21 00:51:20;;;;;;;;;;;;;;;7.78;85.19;101432.16;5059299;28;19916;-62
2023/04/21 00:53:46;;;;;;;;;;;;;;;7.77;85.18;101443.72;5066566;28;19921;-62
2023/04/21 00:56:11;;;;;;;;;;;;;;;7.73;85.30;101444.13;5063553;28;19916;-62
2023/04/21 00:58:39;;;;;;;;;;;;;;;7.71;84.71;101436.34;5067807;28;19920;-62
2023/04/21 01:01:04;;;;;;;;;;;;;;;7.68;85.28;101433.97;5065362;28;19921;-62
2023/04/21 01:03:30;;;;;;;;;;;;;;;7.68;85.05;101435.78;5059678;28;19917;-62
2023/04/21 01:05:55;;;;;;;;;;;;;;;7.68;85.29;101426.03;5066220;28;20043;-62
2023/04/21 01:08:21;;;;;;;;;;;;;;;7.69;85.51;101421.59;5067283;28;19930;-62
2023/04/21 01:10:46;;;;;;;;;;;;;;;7.69;85.75;101422.44;5064470;28;20025;-62
2023/04/21 01:13:11;;;;;;;;;;;;;;;7.69;85.31;101427.72;5067731;28;19954;-62
2023/04/21 01:15:36;;;;;;;;;;;;;;;7.67;85.26;101428.84;5067275;28;20290;-62
2023/04/21 01:18:01;;;;;;;;;;;;;;;7.63;85.56;101428.28;5065638;28;19923;-62
2023/04/21 01:20:28;;;;;;;;;;;;;;;7.64;86.00;101431.75;5065521;28;19920;-63
2023/04/21 01:22:53;;;;;;;;;;;;;;;7.63;86.29;101417.69;5069527;28;19924;-62
2023/04/21 01:25:21;;;;;;;;;;;;;;;7.64;86.48;101419.38;5069357;28;19974;-62
2023/04/21 01:27:46;;;;;;;;;;;;;;;7.67;86.49;101419.09;5066608;28;20553;-63
2023/04/21 01:30:11;;;;;;;;;;;;;;;7.70;86.35;101402.13;5062915;28;19922;-63
2023/04/21 01:32:36;;;;;;;;;;;;;;;7.71;86.50;101412.56;5065099;28;19919;-62
2023/04/21 01:35:02;;;;;;;;;;;;;;;7.74;86.61;101403.50;5070131;28;19998;-62
2023/04/21 01:37:28;;;;;;;;;;;;;;;7.75;86.71;101403.38;5070490;28;20474;-63
2023/04/21 01:39:54;;;;;;;;;;;;;;;7.78;86.57;101408.38;5066891;28;19925;-63
2023/04/21 01:42:21;;;;;;;;;;;;;;;7.79;86.27;101427.72;5069707;28;19916;-62
2023/04/21 01:44:48;;;;;;;;;;;;;;;7.73;86.22;101423.00;5070353;28;19932;-62
2023/04/21 01:47:13;;;;;;;;;;;;;;;7.68;86.61;101415.47;5068964;28;19920;-63
2023/04/21 01:49:38;;;;;;;;;;;;;;;7.63;87.14;101417.69;5066088;28;19974;-63
2023/04/21 01:52:03;;;;;;;;;;;;;;;7.65;87.16;101409.63;5060753;28;19912;-63
2023/04/21 01:54:29;;;;;;;;;;;;;;;7.63;87.14;101399.19;5065399;28;19912;-63
2023/04/21 01:56:55;;;;;;;;;;;;;;;7.63;87.39;101393.91;5062847;28;19912;-63
2023/04/21 01:59:20;;;;;;;;;;;;;;;7.65;87.12;101397.25;5060188;28;19939;-62
2023/04/21 02:01:45;;;;;;;;;;;;;;;7.68;87.48;101391.69;5060010;28;19952;-63
2023/04/21 02:04:10;;;;;;;;;;;;;;;7.67;87.85;101381.25;5060896;28;21163;-62
2023/04/21 02:06:36;;;;;;;;;;;;;;;7.67;88.04;101379.44;5054973;28;19927;-63
2023/04/21 02:09:01;;;;;;;;;;;;;;;7.68;88.13;101372.34;5056580;28;19916;-62
2023/04/21 02:11:26;;;;;;;;;;;;;;;7.69;87.95;101377.50;5055975;28;19917;-63
2023/04/21 02:13:52;;;;;;;;;;;;;;;7.69;88.13;101369.56;5060305;28;20317;-63
2023/04/21 02:16:19;;;;;;;;;;;;;;;7.69;88.34;101360.78;5066294;28;19913;-63
2023/04/21 02:18:44;;;;;;;;;;;;;;;7.68;88.28;101357.31;5060092;28;20017;-63
2023/04/21 02:21:09;;;;;;;;;;;;;;;7.66;88.46;101351.34;5065448;28;19959;-63
2023/04/21 02:23:34;;;;;;;;;;;;;;;7.67;88.56;101350.38;5062931;28;19917;-63
2023/04/21 02:25:59;;;;;;;;;;;;;;;7.67;88.51;101344.25;5061021;28;20424;-63
2023/04/21 02:28:25;;;;;;;;;;;;;;;7.65;88.85;101341.75;5059014;28;19916;-62
2023/04/21 02:30:50;;;;;;;;;;;;;;;7.63;88.63;101348.97;5064234;28;21110;-62
2023/04/21 02:33:15;;;;;;;;;;;;;;;7.63;88.83;101348.97;5065423;28;19956;-62
2023/04/21 02:35:40;;;;;;;;;;;;;;;7.63;89.10;101343.69;5060658;28;19916;-63
2023/04/21 02:38:07;;;;;;;;;;;;;;;7.61;89.15;101350.94;5065250;28;19913;-62
2023/04/21 02:40:32;;;;;;;;;;;;;;;7.62;89.29;101347.31;5063183;28;19917;-63
2023/04/21 02:42:58;;;;;;;;;;;;;;;7.62;89.53;101341.19;5066901;28;19918;-63
2023/04/21 02:45:24;;;;;;;;;;;;;;;7.62;89.99;101339.38;5059968;28;19925;-62
2023/04/21 02:47:49;;;;;;;;;;;;;;;7.60;90.44;101337.84;5070949;28;19917;-63
2023/04/21 02:50:14;;;;;;;;;;;;;;;7.61;90.32;101335.06;5074252;28;19916;-63
2023/04/21 02:52:39;;;;;;;;;;;;;;;7.62;90.58;101323.53;5064679;28;19917;-63
2023/04/21 02:55:05;;;;;;;;;;;;;;;7.60;90.58;101322.00;5069489;28;19938;-63
2023/04/21 02:57:30;;;;;;;;;;;;;;;7.60;90.58;101324.63;5067651;28;19916;-63
2023/04/21 02:59:55;;;;;;;;;;;;;;;7.61;90.86;101321.84;5065400;28;19928;-63
2023/04/21 03:02:20;;;;;;;;;;;;;;;7.60;91.07;101312.25;5063695;28;19963;-63
2023/04/21 03:04:45;;;;;;;;;;;;;;;7.62;90.75;101320.03;5068521;28;19921;-62
2023/04/21 03:07:12;;;;;;;;;;;;;;;7.60;90.87;101316.72;5063416;28;19944;-63
2023/04/21 03:09:37;;;;;;;;;;;;;;;7.59;90.93;101317.69;5069526;28;20120;-63
2023/04/21 03:12:03;;;;;;;;;;;;;;;7.58;91.23;101322.13;5067447;28;20639;-63
2023/04/21 03:14:28;;;;;;;;;;;;;;;7.58;91.11;101331.88;5071297;28;19965;-63
2023/04/21 03:16:53;;;;;;;;;;;;;;;7.57;91.39;101311.69;5064418;28;19924;-63
2023/04/21 03:19:18;;;;;;;;;;;;;;;7.56;91.60;101320.59;5069921;28;20439;-63
2023/04/21 03:21:43;;;;;;;;;;;;;;;7.56;91.77;101320.59;5064662;28;19913;-63
2023/04/21 03:24:08;;;;;;;;;;;;;;;7.55;91.54;101313.66;5059210;28;20400;-63
2023/04/21 03:26:34;;;;;;;;;;;;;;;7.56;91.81;101315.31;5062949;28;20411;-64
2023/04/21 03:28:59;;;;;;;;;;;;;;;7.56;91.74;101310.03;5068239;28;19923;-63
2023/04/21 03:31:24;;;;;;;;;;;;;;;7.55;91.81;101306.56;5063369;28;19927;-62
2023/04/21 03:33:49;;;;;;;;;;;;;;;7.55;91.59;101303.06;5066168;28;19926;-63
2023/04/21 03:36:14;;;;;;;;;;;;;;;7.53;91.23;101300.56;5066542;28;19951;-63
2023/04/21 03:38:40;;;;;;;;;;;;;;;7.51;90.98;101306.94;5067812;28;20007;-63
2023/04/21 03:41:05;;;;;;;;;;;;;;;7.45;91.05;101303.91;5066094;28;20479;-63
2023/04/21 03:43:30;;;;;;;;;;;;;;;7.45;90.78;101297.78;5060457;28;19960;-62
2023/04/21 03:45:55;;;;;;;;;;;;;;;7.41;90.63;101301.66;5068505;28;20406;-63
2023/04/21 03:48:20;;;;;;;;;;;;;;;7.37;90.79;101295.00;5069348;28;19931;-63
2023/04/21 03:50:46;;;;;;;;;;;;;;;7.38;90.72;101301.94;5067719;28;20015;-63
2023/04/21 03:53:11;;;;;;;;;;;;;;;7.35;91.36;101302.22;5068423;28;19916;-63
2023/04/21 03:55:36;;;;;;;;;;;;;;;7.33;91.59;101297.09;5067389;28;19974;-63
2023/04/21 03:58:01;;;;;;;;;;;;;;;7.31;91.72;101296.41;5067174;28;19966;-63
2023/04/21 04:00:26;;;;;;;;;;;;;;;7.30;91.44;101293.88;5068380;28;19916;-63
2023/04/21 04:02:51;;;;;;;;;;;;;;;7.29;91.35;101302.78;5067267;28;20384;-63
2023/04/21 04:05:17;;;;;;;;;;;;;;;7.29;91.20;101300.97;5067683;28;19920;-63
2023/04/21 04:07:42;;;;;;;;;;;;;;;7.25;91.43;101302.22;5066675;28;20032;-63
2023/04/21 04:10:07;;;;;;;;;;;;;;;7.23;92.04;101304.19;5065867;28;19916;-63
2023/04/21 04:12:32;;;;;;;;;;;;;;;7.20;92.49;101300.94;5066067;28;19974;-63
2023/04/21 04:14:57;;;;;;;;;;;;;;;7.17;92.57;101303.88;5060194;28;20347;-63
2023/04/21 04:17:22;;;;;;;;;;;;;;;7.15;92.83;101304.00;5067304;28;19924;-62
2023/04/21 04:19:48;;;;;;;;;;;;;;;7.13;93.00;101309.44;5066803;28;19967;-63
2023/04/21 04:22:13;;;;;;;;;;;;;;;7.12;92.87;101306.94;5065612;28;19920;-63
2023/04/21 04:24:38;;;;;;;;;;;;;;;7.10;92.61;101317.63;5068848;28;19931;-63
2023/04/21 04:27:04;;;;;;;;;;;;;;;7.09;92.02;101313.31;5066503;28;19916;-63
2023/04/21 04:29:29;;;;;;;;;;;;;;;7.08;91.47;101311.66;5067296;28;20045;-63
2023/04/21 04:31:56;;;;;;;;;;;;;;;7.06;91.96;101312.75;5066936;28;20011;-63
2023/04/21 04:34:22;;;;;;;;;;;;;;;7.03;91.88;101319.16;5068378;28;19912;-63
2023/04/21 04:36:49;;;;;;;;;;;;;;;7.02;92.21;101312.19;5066686;28;20366;-63
2023/04/21 04:39:15;;;;;;;;;;;;;;;7.00;92.02;101303.59;5065083;28;19920;-63
2023/04/21 04:41:40;;;;;;;;;;;;;;;6.98;91.68;101308.16;5065765;28;20366;-63
2023/04/21 04:44:06;;;;;;;;;;;;;;;6.97;92.32;101309.13;5068054;28;19919;-62
2023/04/21 04:46:31;;;;;;;;;;;;;;;6.93;92.27;101310.34;5065635;28;20374;-62
2023/04/21 04:48:57;;;;;;;;;;;;;;;6.93;92.38;101309.53;5068928;28;19923;-63
2023/04/21 04:51:22;;;;;;;;;;;;;;;6.93;91.95;101322.72;5067367;28;19913;-63
2023/04/21 04:53:47;;;;;;;;;;;;;;;6.92;91.64;101319.25;5067500;28;20013;-62
2023/04/21 04:56:13;;;;;;;;;;;;;;;6.93;91.80;101323.56;5063636;28;19929;-62
2023/04/21 04:58:38;;;;;;;;;;;;;;;6.91;92.14;101314.94;5069086;28;19923;-62
2023/04/21 05:01:10;;;;;;;;;;;;;;;6.90;92.37;101321.19;5071231;28;19936;-62
2023/04/21 05:03:35;;;;;;;;;;;;;;;6.91;92.38;101317.56;5072320;28;20019;-62
2023/04/21 05:06:01;;;;;;;;;;;;;;;6.94;91.11;101316.47;5070375;28;20665;-63
2023/04/21 05:08:26;;;;;;;;;;;;;;;6.95;91.39;101313.72;5067509;28;19970;-63
2023/04/21 05:10:51;;;;;;;;;;;;;;;6.96;91.85;101318.03;5071247;28;20373;-63
2023/04/21 05:13:16;;;;;;;;;;;;;;;6.96;92.60;101323.31;5072575;28;19913;-63
2023/04/21 05:15:41;;;;;;;;;;;;;;;6.97;92.51;101327.63;5069627;28;19916;-63
2023/04/21 05:18:06;;;;;;;;;;;;;;;6.96;92.32;101325.94;5071884;28;20397;-63
2023/04/21 05:20:31;;;;;;;;;;;;;;;6.99;91.78;101316.91;5070168;28;19974;-62
2023/04/21 05:22:57;;;;;;;;;;;;;;;6.99;91.88;101322.19;5066091;28;20559;-63
2023/04/21 05:25:22;;;;;;;;;;;;;;;7.00;91.91;101335.28;5067589;28;19946;-62
2023/04/21 05:27:47;;;;;;;;;;;;;;;6.98;92.52;101334.56;5071962;28;20382;-63
2023/04/21 05:30:12;;;;;;;;;;;;;;;6.97;92.74;101332.06;5070863;28;19956;-62
2023/04/21 05:32:37;;;;;;;;;;;;;;;6.97;92.35;101332.91;5058906;28;19916;-62
2023/04/21 05:35:03;;;;;;;;;;;;;;;6.97;92.25;101340.81;5061744;28;19951;-62
2023/04/21 05:37:28;;;;;;;;;;;;;;;6.96;92.67;101339.16;5063586;28;20016;-63
2023/04/21 05:39:53;;;;;;;;;;;;;;;6.98;92.84;101341.66;5068940;28;19959;-62
2023/04/21 05:42:18;;;;;;;;;;;;;;;6.99;92.62;101341.53;5066202;28;19923;-62
2023/04/21 05:44:43;;;;;;;;;;;;;;;7.03;93.43;101342.91;5067649;28;19924;-63
2023/04/21 05:47:09;;;;;;;;;;;;;;;7.09;92.22;101344.19;5067511;28;19923;-63
2023/04/21 05:49:34;;;;;;;;;;;;;;;7.16;93.64;101345.28;5065560;28;19931;-62
2023/04/21 05:51:59;;;;;;;;;;;;;;;7.18;93.57;101348.63;5064585;28;20006;-62
2023/04/21 05:54:24;;;;;;;;;;;;;;;7.22;93.17;101350.03;5070330;28;19920;-63
2023/04/21 05:56:50;;;;;;;;;;;;;;;7.27;92.58;101354.94;5069434;28;19923;-63
2023/04/21 05:59:15;;;;;;;;;;;;;;;7.30;92.08;101362.56;5063780;28;19924;-62
2023/04/21 06:01:41;;;;;;;;;;;;;;;7.33;92.19;101354.38;5069764;28;20300;-63
2023/04/21 06:04:06;;;;;;;;;;;;;;;7.36;92.27;101356.75;5064539;28;19924;-62
2023/04/21 06:06:32;;;;;;;;;;;;;;;7.40;92.26;101355.50;5057483;28;19921;-63
2023/04/21 06:08:57;;;;;;;;;;;;;;;7.43;92.89;101349.94;5068224;28;19920;-63
2023/04/21 06:11:22;;;;;;;;;;;;;;;7.50;93.01;101353.69;5070720;28;19996;-63
2023/04/21 06:13:48;;;;;;;;;;;;;;;7.55;93.58;101340.91;5065751;28;19920;-63
2023/04/21 06:16:13;;;;;;;;;;;;;;;7.57;93.78;101349.53;5067889;28;19920;-61
2023/04/21 06:18:38;;;;;;;;;;;;;;;7.59;94.64;101339.66;5060033;28;19963;-63
2023/04/21 06:21:03;;;;;;;;;;;;;;;7.62;94.66;101343.81;5056259;28;19913;-62
2023/04/21 06:23:29;;;;;;;;;;;;;;;7.68;94.81;101346.75;5061117;28;19923;-63
2023/04/21 06:26:02;;;;;;;;;;;;;;;7.72;95.66;101337.56;5064276;28;19938;-63
2023/04/21 06:28:28;;;;;;;;;;;;;;;7.81;96.42;101337.72;5066250;28;19917;-62
2023/04/21 06:30:53;;;;;;;;;;;;;;;7.89;96.37;101343.13;5058629;28;19928;-63
2023/04/21 06:33:18;;;;;;;;;;;;;;;7.92;95.96;101343.69;5056324;28;19923;-63
2023/04/21 06:35:43;;;;;;;;;;;;;;;7.98;95.57;101336.97;5065765;28;19925;-62
2023/04/21 06:38:08;;;;;;;;;;;;;;;8.05;96.21;101338.06;5062851;28;19916;-62
2023/04/21 06:40:33;;;;;;;;;;;;;;;8.18;96.73;101337.78;5058901;28;20007;-62
2023/04/21 06:42:59;;;;;;;;;;;;;;;8.28;96.68;101339.41;5058847;28;19928;-63
2023/04/21 06:45:24;;;;;;;;;;;;;;;8.38;96.50;101342.06;5058233;28;19967;-62
2023/04/21 06:47:49;;;;;;;;;;;;;;;8.49;96.36;101336.63;5057843;28;19919;-62
2023/04/21 06:50:15;;;;;;;;;;;;;;;8.56;96.17;101347.44;5059750;28;20422;-63
2023/04/21 06:52:40;;;;;;;;;;;;;;;8.61;95.17;101340.72;5068709;28;20404;-62
2023/04/21 06:55:05;;;;;;;;;;;;;;;8.69;94.39;101334.72;5069609;28;19916;-63
2023/04/21 06:57:30;;;;;;;;;;;;;;;8.77;94.06;101334.81;5068563;28;19917;-62
2023/04/21 06:59:56;;;;;;;;;;;;;;;8.88;95.18;101339.91;5068175;28;20426;-63
2023/04/21 07:02:21;;;;;;;;;;;;;;;8.99;93.99;101341.56;5068050;28;19920;-63
2023/04/21 07:04:46;;;;;;;;;;;;;;;8.98;94.43;101339.88;5069491;28;19931;-61
2023/04/21 07:07:13;;;;;;;;;;;;;;;9.11;94.32;101347.47;5069566;28;20007;-63
2023/04/21 07:09:38;;;;;;;;;;;;;;;9.17;93.80;101334.47;5062823;28;19923;-62
2023/04/21 07:12:03;;;;;;;;;;;;;;;9.27;94.42;101337.91;5062846;28;19920;-63
2023/04/21 07:14:28;;;;;;;;;;;;;;;9.41;93.87;101344.47;5067710;28;19917;-62
2023/04/21 07:16:55;;;;;;;;;;;;;;;9.41;92.96;101347.13;5053461;28;19956;-63
2023/04/21 07:19:21;;;;;;;;;;;;;;;9.46;93.38;101336.06;5064907;28;19913;-63
2023/04/21 07:21:46;;;;;;;;;;;;;;;9.53;92.45;101342.44;5055375;28;19913;-63
2023/04/21 07:24:11;;;;;;;;;;;;;;;9.48;91.49;101344.69;5058360;28;20008;-63
2023/04/21 07:26:36;;;;;;;;;;;;;;;9.47;91.31;101349.19;5065054;28;19912;-62
2023/04/21 07:29:01;;;;;;;;;;;;;;;9.48;91.43;101347.34;5061879;28;20458;-62
2023/04/21 07:31:26;;;;;;;;;;;;;;;9.53;91.22;101351.22;5062049;28;20392;-62
2023/04/21 07:33:52;;;;;;;;;;;;;;;9.59;90.81;101345.34;5062676;28;20428;-62
2023/04/21 07:36:17;;;;;;;;;;;;;;;9.60;90.63;101333.75;5061278;28;19924;-63
2023/04/21 07:38:43;;;;;;;;;;;;;;;9.67;91.07;101327.81;5067830;28;20290;-62
2023/04/21 07:41:09;;;;;;;;;;;;;;;9.70;90.49;101332.81;5067338;28;19919;-62
2023/04/21 07:43:34;;;;;;;;;;;;;;;9.74;90.02;101335.00;5064537;28;19920;-63
2023/04/21 07:46:00;;;;;;;;;;;;;;;9.72;90.24;101325.53;5067215;28;19917;-63
2023/04/21 07:48:25;;;;;;;;;;;;;;;9.78;89.71;101335.53;5068377;28;19956;-62
2023/04/21 07:50:50;;;;;;;;;;;;;;;9.81;89.92;101327.25;5059474;28;19964;-63
2023/04/21 07:53:15;;;;;;;;;;;;;;;9.90;89.51;101335.16;5067019;28;19916;-63
2023/04/21 07:55:40;;;;;;;;;;;;;;;10.01;89.76;101336.72;5051767;28;19913;-63
2023/04/21 07:58:05;;;;;;;;;;;;;;;10.10;88.82;101334.94;5065563;28;20023;-62
2023/04/21 08:00:31;;;;;;;;;;;;;;;10.11;88.04;101339.25;5058521;28;19917;-62
2023/04/21 08:02:56;;;;;;;;;;;;;;;10.16;87.98;101334.34;5068879;28;19916;-63
2023/04/21 08:05:21;;;;;;;;;;;;;;;10.24;86.92;101342.38;5064962;28;20386;-62
2023/04/21 08:07:46;;;;;;;;;;;;;;;10.17;86.34;101331.53;5058740;28;20356;-63
2023/04/21 08:10:11;;;;;;;;;;;;;;;10.15;86.13;101338.00;5064657;28;19916;-62
2023/04/21 08:12:37;;;;;;;;;;;;;;;10.20;86.14;101333.91;5065684;28;20058;-63
2023/04/21 08:15:06;;;;;;;;;;;;;;;10.31;86.96;101331.97;5054998;28;20393;-62
2023/04/21 08:17:31;;;;;;;;;;;;;;;10.43;86.56;101330.72;5062580;28;19912;-62
2023/04/21 08:19:56;;;;;;;;;;;;;;;10.49;86.27;101324.78;5064314;28;19924;-63
2023/04/21 08:22:21;;;;;;;;;;;;;;;10.53;85.80;101331.44;5067856;28;19912;-63
2023/04/21 08:24:47;;;;;;;;;;;;;;;10.61;85.06;101328.81;5062735;28;20484;-61
2023/04/21 08:27:12;;;;;;;;;;;;;;;10.68;85.15;101332.50;5062552;28;19916;-62
2023/04/21 08:29:37;;;;;;;;;;;;;;;10.84;85.24;101342.38;5057344;28;19912;-63
2023/04/21 08:32:02;;;;;;;;;;;;;;;10.91;84.81;101331.94;5052085;28;19927;-63
2023/04/21 08:34:27;;;;;;;;;;;;;;;10.99;83.90;101319.53;5062697;28;19924;-62
2023/04/21 08:36:53;;;;;;;;;;;;;;;10.99;83.55;101321.34;5063047;28;19917;-63
2023/04/21 08:39:18;;;;;;;;;;;;;;;11.02;83.48;101310.41;5063230;28;20366;-62
2023/04/21 08:41:43;;;;;;;;;;;;;;;11.06;83.45;101309.06;5060219;28;19912;-63
2023/04/21 08:44:10;;;;;;;;;;;;;;;11.17;83.26;101316.72;5067217;28;20531;-63
2023/04/21 08:46:35;;;;;;;;;;;;;;;11.28;82.63;101319.09;5065341;28;19928;-63
2023/04/21 08:49:01;;;;;;;;;;;;;;;11.35;82.23;101312.13;5065082;28;19916;-63
2023/04/21 08:51:26;;;;;;;;;;;;;;;11.48;81.80;101314.28;5066642;28;19919;-63
2023/04/21 08:53:53;;;;;;;;;;;;;;;11.57;81.43;101318.63;5066322;28;20421;-63
2023/04/21 08:56:18;;;;;;;;;;;;;;;11.61;81.09;101321.78;5066268;28;19921;-62
2023/04/21 08:58:43;;;;;;;;;;;;;;;11.67;80.09;101311.31;5065391;28;19939;-62
2023/04/21 09:01:09;;;;;;;;;;;;;;;11.65;79.84;101318.63;5067341;28;19913;-62
2023/04/21 09:03:34;;;;;;;;;;;;;;;11.75;79.96;101313.13;5063625;28;21213;-63
2023/04/21 09:06:01;;;;;;;;;;;;;;;11.83;80.14;101322.97;5058904;28;19974;-63
2023/04/21 09:08:28;;;;;;;;;;;;;;;11.85;79.43;101303.19;5064258;28;19921;-63
2023/04/21 09:10:53;;;;;;;;;;;;;;;11.92;78.82;101312.19;5064809;28;19932;-62
2023/04/21 09:13:19;;;;;;;;;;;;;;;11.92;79.18;101312.19;5063903;28;19925;-62
2023/04/21 09:15:46;;;;;;;;;;;;;;;11.95;79.08;101309.19;5058907;28;19924;-63
2023/04/21 09:18:13;;;;;;;;;;;;;;;11.96;78.73;101300.19;5061741;28;20290;-63
2023/04/21 09:20:38;;;;;;;;;;;;;;;12.08;79.07;101298.00;5064037;28;20558;-63
2023/04/21 09:23:04;;;;;;;;;;;;;;;12.28;78.61;101293.97;5061455;28;19965;-63
2023/04/21 09:25:30;;;;;;;;;;;;;;;12.42;78.31;101305.72;5065754;28;19932;-62
2023/04/21 09:27:56;;;;;;;;;;;;;;;12.56;78.39;101301.53;5065715;28;19916;-63
2023/04/21 09:30:21;;;;;;;;;;;;;;;12.53;77.34;101292.06;5066914;28;19912;-63
2023/04/21 09:32:47;;;;;;;;;;;;;;;12.56;76.95;101305.03;5064989;28;19923;-61
2023/04/21 09:35:12;;;;;;;;;;;;;;;12.59;76.97;101307.34;5064161;28;19916;-63
2023/04/21 09:37:38;;;;;;;;;;;;;;;12.62;76.65;101304.34;5064993;28;19920;-63
2023/04/21 09:40:03;;;;;;;;;;;;;;;12.74;76.98;101296.00;5062437;28;19931;-63
2023/04/21 09:42:29;;;;;;;;;;;;;;;12.90;76.75;101306.56;5067076;28;20351;-62
2023/04/21 09:44:55;;;;;;;;;;;;;;;12.93;76.22;101299.03;5059521;28;20446;-62
2023/04/21 09:47:21;;;;;;;;;;;;;;;13.04;75.63;101303.16;5060026;28;20295;-63
2023/04/21 09:49:50;;;;;;;;;;;;;;;13.21;75.03;101301.25;5065056;28;19916;-63
2023/04/21 09:52:16;;;;;;;;;;;;;;;13.16;74.13;101303.59;5068946;28;19964;-63
2023/04/21 09:54:44;;;;;;;;;;;;;;;13.17;74.31;101299.91;5056920;28;19947;-63
2023/04/21 09:57:12;;;;;;;;;;;;;;;13.16;73.59;101292.91;5069729;28;20434;-62
2023/04/21 09:59:39;;;;;;;;;;;;;;;13.25;73.48;101303.38;5070228;28;20404;-63
2023/04/21 10:02:05;;;;;;;;;;;;;;;13.26;72.93;101298.88;5070636;28;19916;-63
2023/04/21 10:04:32;;;;;;;;;;;;;;;13.19;73.03;101293.44;5070414;28;19920;-63
2023/04/21 10:06:58;;;;;;;;;;;;;;;13.23;73.21;101293.91;5069889;28;19926;-63
2023/04/21 10:09:26;;;;;;;;;;;;;;;13.27;73.08;101289.88;5061765;28;19931;-63
2023/04/21 10:11:52;;;;;;;;;;;;;;;13.35;73.13;101286.34;5070636;28;19969;-63
2023/04/21 10:14:17;;;;;;;;;;;;;;;13.61;73.63;101281.47;5069981;28;19912;-63
2023/04/21 10:16:42;;;;;;;;;;;;;;;13.88;72.19;101277.41;5064046;28;19957;-63
2023/04/21 10:19:23;;;;;;;;;;;;;;;14.04;71.99;101287.06;5069868;28;19916;-63
2023/04/21 10:21:48;;;;;;;;;;;;;;;14.14;70.59;101280.44;5068735;28;19912;-63
2023/04/21 10:24:14;;;;;;;;;;;;;;;14.31;70.78;101280.28;5065021;28;19913;-63
2023/04/21 10:26:39;;;;;;;;;;;;;;;14.44;69.81;101278.63;5055713;28;19917;-63
2023/04/21 10:29:05;;;;;;;;;;;;;;;14.41;69.26;101272.81;5066831;28;19916;-63
2023/04/21 10:31:34;;;;;;;;;;;;;;;14.29;68.41;101272.44;5063844;28;20382;-63
2023/04/21 10:34:10;;;;;;;;;;;;;;;14.16;67.93;101264.22;5055601;28;19912;-63
2023/04/21 10:36:42;;;;;;;;;;;;;;;14.13;68.34;101252.06;5066024;28;19920;-63
2023/04/21 10:39:07;;;;;;;;;;;;;;;14.17;68.33;101239.19;5061478;28;19913;-63
2023/04/21 10:41:33;;;;;;;;;;;;;;;14.07;68.31;101241.31;5067478;28;20321;-62
2023/04/21 10:43:58;;;;;;;;;;;;;;;14.18;67.61;101241.69;5070558;28;19913;-63
2023/04/21 10:46:35;;;;;;;;;;;;;;;14.33;68.39;101243.50;5068707;28;19917;-62
2023/04/21 10:49:24;;;;;;;;;;;;;;;14.65;69.01;101237.78;5065058;28;20352;-63
2023/04/21 10:51:58;;;;;;;;;;;;;;;14.84;68.27;101237.19;5054527;28;19924;-64
2023/04/21 10:54:26;;;;;;;;;;;;;;;14.81;67.37;101231.41;5066423;28;19924;-64
2023/04/21 10:56:55;;;;;;;;;;;;;;;14.83;66.57;101229.38;5060588;28;20381;-64
2023/04/21 10:59:21;;;;;;;;;;;;;;;14.85;66.64;101222.81;5058941;28;19939;-63
2023/04/21 11:01:46;;;;;;;;;;;;;;;14.98;66.53;101227.47;5062118;28;20267;-64
2023/04/21 11:04:15;;;;;;;;;;;;;;;15.06;66.33;101218.50;5062236;28;19970;-63
2023/04/21 11:06:40;;;;;;;;;;;;;;;15.07;65.30;101210.28;5057983;28;19920;-64
2023/04/21 11:09:05;;;;;;;;;;;;;;;15.06;65.26;101213.16;5068970;28;20282;-63
2023/04/21 11:11:30;;;;;;;;;;;;;;;15.10;64.11;101214.44;5068510;28;19916;-63
2023/04/21 11:13:58;;;;;;;;;;;;;;;15.22;63.64;101204.03;5062444;28;19978;-63
2023/04/21 11:16:24;;;;;;;;;;;;;;;15.24;63.61;101199.31;5061643;28;19921;-63
2023/04/21 11:18:49;;;;;;;;;;;;;;;15.35;63.95;101194.28;5062123;28;19917;-63
2023/04/21 11:21:20;;;;;;;;;;;;;;;15.43;62.81;101190.63;5062380;28;20508;-64
2023/04/21 11:23:56;;;;;;;;;;;;;;;15.59;62.92;101198.41;5063698;28;20073;-64
2023/04/21 11:26:31;;;;;;;;;;;;;;;15.79;61.39;101177.94;5067007;28;19928;-64
2023/04/21 11:28:58;;;;;;;;;;;;;;;15.74;60.86;101177.72;5061938;28;19921;-64
2023/04/21 11:31:27;;;;;;;;;;;;;;;15.70;61.61;101168.44;5068550;28;19912;-64
2023/04/21 11:33:54;;;;;;;;;;;;;;;15.66;61.08;101169.84;5064736;28;20396;-64
2023/04/21 11:36:20;;;;;;;;;;;;;;;15.75;62.28;101171.34;5058844;28;20400;-63
2023/04/21 11:38:45;;;;;;;;;;;;;;;15.78;61.77;101172.78;5065271;28;20013;-63
2023/04/21 11:41:10;;;;;;;;;;;;;;;15.62;61.91;101173.13;5056753;28;19959;-63
2023/04/21 11:43:36;;;;;;;;;;;;;;;15.62;61.90;101160.56;5061802;28;19917;-63
2023/04/21 11:46:11;;;;;;;;;;;;;;;15.57;62.16;101152.22;5068872;28;19917;-64
2023/04/21 11:48:36;;;;;;;;;;;;;;;15.71;62.82;101153.19;5064688;28;19912;-63
2023/04/21 11:51:01;;;;;;;;;;;;;;;15.98;63.98;101146.97;5064718;28;20301;-64
2023/04/21 11:53:28;;;;;;;;;;;;;;;15.89;61.32;101140.09;5067157;28;19916;-64
2023/04/21 11:55:55;;;;;;;;;;;;;;;15.63;60.43;101151.50;5067637;28;20394;-64
2023/04/21 11:58:20;;;;;;;;;;;;;;;15.67;61.57;101142.03;5068168;28;19974;-64
2023/04/21 12:00:45;;;;;;;;;;;;;;;15.77;61.58;101147.88;5056251;28;19912;-63
2023/04/21 12:03:11;;;;;;;;;;;;;;;15.82;62.07;101135.72;5064208;28;19920;-64
2023/04/21 12:05:37;;;;;;;;;;;;;;;15.79;61.44;101145.81;5059422;28;20374;-63
2023/04/21 12:08:05;;;;;;;;;;;;;;;15.84;61.66;101123.78;5064175;28;19923;-63
2023/04/21 12:10:30;;;;;;;;;;;;;;;15.89;61.33;101144.63;5059088;28;20374;-63
2023/04/21 12:12:56;;;;;;;;;;;;;;;16.01;61.50;101137.69;5061636;28;19917;-64
2023/04/21 12:15:22;;;;;;;;;;;;;;;16.01;61.06;101132.34;5066470;28;20023;-64
2023/04/21 12:17:51;;;;;;;;;;;;;;;16.16;61.68;101129.50;5056491;28;20382;-64
2023/04/21 12:20:20;;;;;;;;;;;;;;;16.26;61.32;101130.81;5063670;28;19940;-63
2023/04/21 12:22:46;;;;;;;;;;;;;;;16.29;60.80;101127.72;5059381;28;19921;-64
2023/04/21 12:25:11;;;;;;;;;;;;;;;16.14;60.34;101104.75;5059425;28;19928;-64
2023/04/21 12:27:36;;;;;;;;;;;;;;;16.09;59.99;101122.28;5067056;28;19919;-64
2023/04/21 12:30:02;;;;;;;;;;;;;;;16.05;59.88;101104.94;5060151;28;19912;-63
2023/04/21 12:32:28;;;;;;;;;;;;;;;15.99;60.30;101115.63;5062020;28;19921;-64
2023/04/21 12:34:53;;;;;;;;;;;;;;;16.00;60.42;101111.94;5061698;28;19931;-64